Time;durP1;ratioP1;P1;durP2;ratioP2;P2;SDS_P1;SDS_P2;PMS_P1;PMS_P2;Temp;Humidity;BMP_temperature;BMP_pressure;BME280_temperature;BME280_humidity;BME280_pressure;Samples;Min_cycle;Max_cycle;Signal;HPM_P1;HPM_P2
2022/12/07 00:02:09;;;;;;;;;;;4.10;99.90;;;;;;5029252;28;19929;-66
2022/12/07 00:04:38;;;;;;;;;;;4.00;99.90;;;;;;5026990;28;20078;-65
2022/12/07 00:07:05;;;;;;;;;;;3.90;99.90;;;;;;5025807;28;19933;-67
2022/12/07 00:09:33;;;;;;;;;;;4.00;99.90;;;;;;5025197;28;19933;-66
2022/12/07 00:12:01;;;;;;;;;;;3.90;99.90;;;;;;5031729;28;19933;-66
2022/12/07 00:14:29;;;;;;;;;;;3.90;99.90;;;;;;5024920;28;21050;-67
2022/12/07 00:16:56;;;;;;;;;;;3.90;99.90;;;;;;5025707;28;20044;-67
2022/12/07 00:19:24;;;;;;;;;;;3.70;99.90;;;;;;5026045;28;19933;-66
2022/12/07 00:21:53;;;;;;;;;;;3.50;99.90;;;;;;5024451;28;20051;-65
2022/12/07 00:24:21;;;;;;;;;;;3.40;99.90;;;;;;5027537;28;19940;-66
2022/12/07 00:26:49;;;;;;;;;;;3.30;99.90;;;;;;5026743;28;19933;-65
2022/12/07 00:29:17;;;;;;;;;;;3.30;99.90;;;;;;5026029;28;20617;-65
2022/12/07 00:31:45;;;;;;;;;;;3.30;99.90;;;;;;5025088;28;19925;-65
2022/12/07 00:34:14;;;;;;;;;;;3.30;99.90;;;;;;5026584;28;19932;-67
2022/12/07 00:36:41;;;;;;;;;;;3.30;99.90;;;;;;5027103;28;19940;-67
2022/12/07 00:39:10;;;;;;;;;;;3.30;99.90;;;;;;5027416;28;19932;-68
2022/12/07 00:41:38;;;;;;;;;;;3.30;99.90;;;;;;5030472;28;19932;-66
2022/12/07 00:44:06;;;;;;;;;;;3.30;99.90;;;;;;5026273;28;19937;-66
2022/12/07 00:46:34;;;;;;;;;;;3.40;99.90;;;;;;5025865;28;19941;-66
2022/12/07 00:49:01;;;;;;;;;;;3.40;99.90;;;;;;5029651;28;20051;-66
2022/12/07 00:51:29;;;;;;;;;;;3.40;99.90;;;;;;5024957;28;19937;-66
2022/12/07 00:53:57;;;;;;;;;;;3.50;99.90;;;;;;5025027;28;19933;-66
2022/12/07 00:56:27;;;;;;;;;;;3.50;99.90;;;;;;5029849;28;19943;-66
2022/12/07 00:58:56;;;;;;;;;;;3.50;99.90;;;;;;5028756;28;19939;-66
2022/12/07 01:01:24;;;;;;;;;;;3.50;99.90;;;;;;5028390;28;20481;-66
2022/12/07 01:03:52;;;;;;;;;;;3.50;99.90;;;;;;5025555;28;19933;-66
2022/12/07 01:06:21;;;;;;;;;;;3.50;99.90;;;;;;5024678;28;20628;-66
2022/12/07 01:08:49;;;;;;;;;;;3.50;99.90;;;;;;5024413;28;19937;-66
2022/12/07 01:11:18;;;;;;;;;;;3.60;99.90;;;;;;5023920;28;19933;-66
2022/12/07 01:13:47;;;;;;;;;;;3.50;99.90;;;;;;5028154;28;19925;-67
2022/12/07 01:16:15;;;;;;;;;;;3.50;99.90;;;;;;5025748;28;19931;-66
2022/12/07 01:18:46;;;;;;;;;;;3.50;99.90;;;;;;5028499;28;19940;-66
2022/12/07 01:21:15;;;;;;;;;;;3.50;99.90;;;;;;5024951;28;19940;-67
2022/12/07 01:23:43;;;;;;;;;;;3.50;99.90;;;;;;5027939;28;19925;-66
2022/12/07 01:26:12;;;;;;;;;;;3.50;99.90;;;;;;5028430;28;19931;-67
2022/12/07 01:28:40;;;;;;;;;;;3.40;99.90;;;;;;5029709;28;20395;-65
2022/12/07 01:31:11;;;;;;;;;;;3.50;99.90;;;;;;5026143;28;19968;-66
2022/12/07 01:33:39;;;;;;;;;;;3.40;99.90;;;;;;5025666;28;20011;-67
2022/12/07 01:36:08;;;;;;;;;;;3.50;99.90;;;;;;5027459;28;19929;-67
2022/12/07 01:38:36;;;;;;;;;;;3.40;99.90;;;;;;5024534;28;19933;-67
2022/12/07 01:41:03;;;;;;;;;;;3.40;99.90;;;;;;5026136;28;19933;-67
2022/12/07 01:43:32;;;;;;;;;;;3.30;99.90;;;;;;5023854;28;19933;-67
2022/12/07 01:46:00;;;;;;;;;;;3.40;99.90;;;;;;5026972;28;19929;-67
2022/12/07 01:48:33;;;;;;;;;;;3.40;99.90;;;;;;5024031;28;20447;-67
2022/12/07 01:51:02;;;;;;;;;;;3.40;99.90;;;;;;5027204;28;19940;-66
2022/12/07 01:53:33;;;;;;;;;;;3.30;99.90;;;;;;5024617;28;20309;-66
2022/12/07 01:56:01;;;;;;;;;;;3.30;99.90;;;;;;5027918;28;19933;-66
2022/12/07 01:58:29;;;;;;;;;;;3.40;99.90;;;;;;5025222;28;19940;-65
2022/12/07 02:00:56;;;;;;;;;;;3.40;99.90;;;;;;5023883;28;19948;-66
2022/12/07 02:03:26;;;;;;;;;;;3.50;99.90;;;;;;5024400;28;21195;-65
2022/12/07 02:05:56;;;;;;;;;;;3.50;99.90;;;;;;5027131;28;20158;-65
2022/12/07 02:08:24;;;;;;;;;;;3.60;99.90;;;;;;5024690;28;19933;-65
2022/12/07 02:10:52;;;;;;;;;;;3.50;99.90;;;;;;5029452;28;19939;-65
2022/12/07 02:13:22;;;;;;;;;;;3.60;99.90;;;;;;5023067;28;19940;-65
2022/12/07 02:16:09;;;;;;;;;;;3.60;99.90;;;;;;5023339;28;19933;-66
2022/12/07 02:18:45;;;;;;;;;;;3.70;99.90;;;;;;5023579;28;19933;-65
2022/12/07 02:21:17;;;;;;;;;;;3.70;99.90;;;;;;5025037;28;19926;-67
2022/12/07 02:23:57;;;;;;;;;;;3.70;99.90;;;;;;5027488;28;19925;-65
2022/12/07 02:26:43;;;;;;;;;;;3.70;99.90;;;;;;5026113;28;19937;-65
2022/12/07 02:29:15;;;;;;;;;;;3.60;99.90;;;;;;5025676;28;19932;-66
2022/12/07 02:31:45;;;;;;;;;;;3.70;99.90;;;;;;5028316;28;19936;-65
2022/12/07 02:34:16;;;;;;;;;;;3.70;99.90;;;;;;5024762;28;20333;-67
2022/12/07 02:36:46;;;;;;;;;;;3.70;99.90;;;;;;5024761;28;20347;-66
2022/12/07 02:39:17;;;;;;;;;;;3.70;99.90;;;;;;5027268;28;19925;-65
2022/12/07 02:41:48;;;;;;;;;;;3.70;99.90;;;;;;5030523;28;19929;-65
2022/12/07 02:44:18;;;;;;;;;;;3.70;99.90;;;;;;5027034;28;19933;-66
2022/12/07 02:46:49;;;;;;;;;;;3.70;99.90;;;;;;5029271;28;19940;-66
2022/12/07 02:49:17;;;;;;;;;;;3.60;99.90;;;;;;5027253;28;20436;-66
2022/12/07 02:51:46;;;;;;;;;;;3.70;99.90;;;;;;5026299;28;20008;-65
2022/12/07 02:54:18;;;;;;;;;;;3.60;99.90;;;;;;5033994;28;19932;-66
2022/12/07 02:56:48;;;;;;;;;;;3.60;99.90;;;;;;5027349;28;19958;-65
2022/12/07 02:59:24;;;;;;;;;;;3.60;99.90;;;;;;5027215;28;20611;-65
2022/12/07 03:01:58;;;;;;;;;;;3.50;99.90;;;;;;5032167;28;19933;-65
2022/12/07 03:04:33;;;;;;;;;;;3.50;99.90;;;;;;5029796;28;19933;-66
2022/12/07 03:07:03;;;;;;;;;;;3.50;99.90;;;;;;5027046;28;20026;-66
2022/12/07 03:09:36;;;;;;;;;;;3.50;99.90;;;;;;5028119;28;20534;-66
2022/12/07 03:12:09;;;;;;;;;;;3.40;99.90;;;;;;5026595;28;19943;-66
2022/12/07 03:14:42;;;;;;;;;;;3.40;99.90;;;;;;5033988;28;19935;-66
2022/12/07 03:17:13;;;;;;;;;;;3.40;99.90;;;;;;5027445;28;20406;-66
2022/12/07 03:19:42;;;;;;;;;;;3.50;99.90;;;;;;5035645;28;19929;-65
2022/12/07 03:22:11;;;;;;;;;;;3.50;99.90;;;;;;5026312;28;19926;-65
2022/12/07 03:24:42;;;;;;;;;;;3.50;99.90;;;;;;5031906;28;19925;-65
2022/12/07 03:27:12;;;;;;;;;;;3.50;99.90;;;;;;5032442;28;19933;-65
2022/12/07 03:29:44;;;;;;;;;;;3.60;99.90;;;;;;5048168;28;19931;-66
2022/12/07 03:32:15;;;;;;;;;;;3.60;99.90;;;;;;5049521;28;20285;-66
2022/12/07 03:34:45;;;;;;;;;;;3.60;99.90;;;;;;5046827;28;19931;-65
2022/12/07 03:37:15;;;;;;;;;;;3.60;99.90;;;;;;5054308;28;19924;-65
2022/12/07 03:39:47;;;;;;;;;;;3.60;99.90;;;;;;5053857;28;19925;-65
2022/12/07 03:42:15;;;;;;;;;;;3.60;99.90;;;;;;5054322;28;19935;-65
2022/12/07 03:44:44;;;;;;;;;;;3.60;99.90;;;;;;5054108;28;19931;-65
2022/12/07 03:47:14;;;;;;;;;;;3.70;99.90;;;;;;5053829;28;19935;-65
2022/12/07 03:49:43;;;;;;;;;;;3.70;99.90;;;;;;5053236;28;20410;-65
2022/12/07 03:52:13;;;;;;;;;;;3.70;99.90;;;;;;5053870;28;19924;-65
2022/12/07 03:54:42;;;;;;;;;;;3.70;99.90;;;;;;5053930;28;19925;-65
2022/12/07 03:57:11;;;;;;;;;;;3.80;99.90;;;;;;5053972;28;20416;-65
2022/12/07 03:59:39;;;;;;;;;;;3.70;99.90;;;;;;5052991;28;19938;-65
2022/12/07 04:02:08;;;;;;;;;;;3.80;99.90;;;;;;5071114;23;19925;-61
2022/12/07 04:04:36;;;;;;;;;;;3.70;99.90;;;;;;5053792;28;19925;-61
2022/12/07 04:07:04;;;;;;;;;;;3.70;99.90;;;;;;5053449;28;19925;-61
2022/12/07 04:09:31;;;;;;;;;;;3.70;99.90;;;;;;5053519;28;20019;-61
2022/12/07 04:11:59;;;;;;;;;;;3.80;99.90;;;;;;5065567;28;19924;-61
2022/12/07 04:14:27;;;;;;;;;;;3.80;99.90;;;;;;5064848;28;19931;-61
2022/12/07 04:16:56;;;;;;;;;;;3.80;99.90;;;;;;5068803;28;19925;-61
2022/12/07 04:19:26;;;;;;;;;;;3.70;99.90;;;;;;5072948;28;20388;-61
2022/12/07 04:21:54;;;;;;;;;;;3.80;99.90;;;;;;5072888;28;19958;-61
2022/12/07 04:24:22;;;;;;;;;;;3.80;99.90;;;;;;5073622;28;19961;-61
2022/12/07 04:26:50;;;;;;;;;;;3.80;99.90;;;;;;5071206;28;19935;-61
2022/12/07 04:29:18;;;;;;;;;;;3.80;99.90;;;;;;5061989;28;20012;-61
2022/12/07 04:31:46;;;;;;;;;;;3.80;99.90;;;;;;5063603;28;19925;-62
2022/12/07 04:34:14;;;;;;;;;;;3.80;99.90;;;;;;5070316;28;19932;-61
2022/12/07 04:36:43;;;;;;;;;;;3.80;99.90;;;;;;5068612;28;19925;-61
2022/12/07 04:39:18;;;;;;;;;;;3.80;99.90;;;;;;5070941;28;19964;-61
2022/12/07 04:41:45;;;;;;;;;;;3.80;99.90;;;;;;5065087;28;19924;-61
2022/12/07 04:44:14;;;;;;;;;;;3.80;99.90;;;;;;5067661;28;19928;-61
2022/12/07 04:46:42;;;;;;;;;;;3.80;99.90;;;;;;5061986;28;20415;-61
2022/12/07 04:49:10;;;;;;;;;;;3.80;99.90;;;;;;5067804;28;20309;-61
2022/12/07 04:51:38;;;;;;;;;;;3.80;99.90;;;;;;5063673;28;19924;-62
2022/12/07 04:54:07;;;;;;;;;;;3.80;99.90;;;;;;5069729;28;19924;-62
2022/12/07 04:56:35;;;;;;;;;;;3.80;99.90;;;;;;5062834;28;19978;-61
2022/12/07 04:59:03;;;;;;;;;;;3.90;99.90;;;;;;5070112;28;19924;-62
2022/12/07 05:01:31;;;;;;;;;;;3.90;99.90;;;;;;5058727;28;19924;-61
2022/12/07 05:03:59;;;;;;;;;;;3.90;99.90;;;;;;5065155;28;19924;-61
2022/12/07 05:06:27;;;;;;;;;;;4.00;99.90;;;;;;5066698;28;20591;-61
2022/12/07 05:08:55;;;;;;;;;;;4.00;99.90;;;;;;5068570;28;19943;-61
2022/12/07 05:11:38;;;;;;;;;;;4.00;99.90;;;;;;5059580;28;19931;-61
2022/12/07 05:14:07;;;;;;;;;;;4.00;99.90;;;;;;5069225;28;20007;-61
2022/12/07 05:16:35;;;;;;;;;;;4.00;99.90;;;;;;5066877;28;19924;-61
2022/12/07 05:19:03;;;;;;;;;;;4.10;99.90;;;;;;5061904;28;20031;-61
2022/12/07 05:21:31;;;;;;;;;;;4.10;99.90;;;;;;5063509;28;20404;-61
2022/12/07 05:23:59;;;;;;;;;;;4.10;99.90;;;;;;5065088;28;19925;-61
2022/12/07 05:26:28;;;;;;;;;;;4.10;99.90;;;;;;5065978;28;20382;-62
2022/12/07 05:28:56;;;;;;;;;;;4.10;99.90;;;;;;5065465;28;20019;-62
2022/12/07 05:31:24;;;;;;;;;;;4.10;99.90;;;;;;5063079;28;19935;-62
2022/12/07 05:33:52;;;;;;;;;;;4.20;99.90;;;;;;5066169;28;19925;-62
2022/12/07 05:36:20;;;;;;;;;;;4.20;99.90;;;;;;5058527;28;19924;-61
2022/12/07 05:38:48;;;;;;;;;;;4.20;99.90;;;;;;5071672;28;19924;-61
2022/12/07 05:44:03;;;;;;;;;;;4.20;99.90;;;;;;5068020;28;19925;-61
2022/12/07 05:46:31;;;;;;;;;;;4.20;99.90;;;;;;5066030;28;19931;-61
2022/12/07 05:48:59;;;;;;;;;;;4.20;99.90;;;;;;5068818;28;19935;-61
2022/12/07 05:51:26;;;;;;;;;;;4.10;99.90;;;;;;5064497;28;19925;-61
2022/12/07 05:53:54;;;;;;;;;;;4.10;99.90;;;;;;5061743;28;19932;-61
2022/12/07 05:56:22;;;;;;;;;;;4.10;99.90;;;;;;5065190;28;19928;-61
2022/12/07 06:01:37;;;;;;;;;;;4.10;99.90;;;;;;5063263;28;19924;-62
2022/12/07 06:04:04;;;;;;;;;;;4.10;99.90;;;;;;5067111;28;19935;-62
2022/12/07 06:06:32;;;;;;;;;;;4.10;99.90;;;;;;5062070;28;20420;-61
2022/12/07 06:09:00;;;;;;;;;;;4.10;99.90;;;;;;5064854;28;20644;-61
2022/12/07 06:14:13;;;;;;;;;;;4.10;99.90;;;;;;5065916;28;19924;-62
2022/12/07 06:16:42;;;;;;;;;;;4.20;99.90;;;;;;5061100;28;19934;-61
2022/12/07 06:19:10;;;;;;;;;;;4.20;99.90;;;;;;5064462;28;19931;-61
2022/12/07 06:21:37;;;;;;;;;;;4.20;99.90;;;;;;5057523;28;19931;-61
2022/12/07 06:24:06;;;;;;;;;;;4.20;99.90;;;;;;5069993;28;19924;-61
2022/12/07 06:26:33;;;;;;;;;;;4.30;99.90;;;;;;5064082;28;19928;-61
2022/12/07 06:29:01;;;;;;;;;;;4.30;99.90;;;;;;5064068;28;20748;-61
2022/12/07 06:31:29;;;;;;;;;;;4.30;99.90;;;;;;5063994;28;19932;-61
2022/12/07 06:34:01;;;;;;;;;;;4.30;99.90;;;;;;5065208;28;19924;-61
2022/12/07 06:36:29;;;;;;;;;;;4.40;99.90;;;;;;5063079;28;19931;-61
2022/12/07 06:38:57;;;;;;;;;;;4.40;99.90;;;;;;5068485;28;19925;-61
2022/12/07 06:41:25;;;;;;;;;;;4.30;99.90;;;;;;5063952;28;19939;-61
2022/12/07 06:43:52;;;;;;;;;;;4.30;99.90;;;;;;5059986;28;19925;-61
2022/12/07 06:46:23;;;;;;;;;;;4.20;99.90;;;;;;5062565;28;20023;-61
2022/12/07 06:48:50;;;;;;;;;;;4.20;99.90;;;;;;5068666;28;19938;-61
2022/12/07 06:51:19;;;;;;;;;;;4.20;99.90;;;;;;5065938;28;19931;-61
2022/12/07 06:53:47;;;;;;;;;;;4.20;99.90;;;;;;5058294;28;19939;-61
2022/12/07 06:56:15;;;;;;;;;;;4.10;99.90;;;;;;5068156;28;20023;-61
2022/12/07 06:58:43;;;;;;;;;;;4.10;99.90;;;;;;5070124;28;20026;-61
2022/12/07 07:01:11;;;;;;;;;;;4.10;99.90;;;;;;5068448;28;19924;-61
2022/12/07 07:03:39;;;;;;;;;;;4.10;99.90;;;;;;5063450;28;19928;-61
2022/12/07 07:06:08;;;;;;;;;;;4.10;99.90;;;;;;5051063;28;19925;-61
2022/12/07 07:08:37;;;;;;;;;;;4.10;99.90;;;;;;5071306;28;19935;-62
2022/12/07 07:11:05;;;;;;;;;;;4.00;99.90;;;;;;5066715;28;19932;-61
2022/12/07 07:13:33;;;;;;;;;;;4.10;99.90;;;;;;5078035;28;19929;-61
2022/12/07 07:16:01;;;;;;;;;;;4.10;99.90;;;;;;5076578;28;19924;-62
2022/12/07 07:18:28;;;;;;;;;;;4.10;99.90;;;;;;5058659;28;20300;-61
2022/12/07 07:20:56;;;;;;;;;;;4.10;99.90;;;;;;5071305;28;19935;-61
2022/12/07 07:23:24;;;;;;;;;;;4.10;99.90;;;;;;5084181;28;19937;-62
2022/12/07 07:25:53;;;;;;;;;;;4.10;99.90;;;;;;5082828;28;19928;-61
2022/12/07 07:28:21;;;;;;;;;;;4.10;99.90;;;;;;5074510;28;20293;-61
2022/12/07 07:30:48;;;;;;;;;;;4.10;99.90;;;;;;5073073;28;20459;-61
2022/12/07 07:33:16;;;;;;;;;;;4.10;99.90;;;;;;5058467;28;20313;-61
2022/12/07 07:35:44;;;;;;;;;;;4.00;99.90;;;;;;5071041;28;19924;-61
2022/12/07 07:38:12;;;;;;;;;;;4.10;99.90;;;;;;5066411;28;20450;-61
2022/12/07 07:40:39;;;;;;;;;;;4.00;99.90;;;;;;5082104;28;19930;-61
2022/12/07 07:43:09;;;;;;;;;;;4.00;99.90;;;;;;5094576;28;19924;-61
2022/12/07 07:45:36;;;;;;;;;;;4.00;99.90;;;;;;5079555;28;20324;-61
2022/12/07 07:48:04;;;;;;;;;;;4.00;99.90;;;;;;5074108;28;19975;-62
2022/12/07 07:50:32;;;;;;;;;;;4.10;99.90;;;;;;5073180;28;20023;-61
2022/12/07 07:53:00;;;;;;;;;;;4.10;99.90;;;;;;5073937;28;19924;-61
2022/12/07 07:55:27;;;;;;;;;;;4.10;99.90;;;;;;5085714;28;20019;-61
2022/12/07 07:57:55;;;;;;;;;;;4.10;99.90;;;;;;5074564;28;19931;-61
2022/12/07 08:00:24;;;;;;;;;;;4.00;99.90;;;;;;5069122;28;19931;-61
2022/12/07 08:02:52;;;;;;;;;;;4.10;99.90;;;;;;5056932;28;19931;-61
2022/12/07 08:05:20;;;;;;;;;;;4.00;99.90;;;;;;5053487;28;19931;-61
2022/12/07 08:07:47;;;;;;;;;;;3.90;99.90;;;;;;5071397;28;20396;-61
2022/12/07 08:10:15;;;;;;;;;;;4.00;99.90;;;;;;5058505;28;20012;-61
2022/12/07 08:15:28;;;;;;;;;;;4.10;99.90;;;;;;5068246;28;20316;-61
2022/12/07 08:17:55;;;;;;;;;;;4.10;99.90;;;;;;5062934;28;20386;-60
2022/12/07 08:20:23;;;;;;;;;;;4.10;99.90;;;;;;5052358;28;20007;-61
2022/12/07 08:22:51;;;;;;;;;;;4.20;99.90;;;;;;5059130;28;19924;-60
2022/12/07 08:25:19;;;;;;;;;;;4.20;99.90;;;;;;5059042;28;19924;-60
2022/12/07 08:27:46;;;;;;;;;;;4.20;99.90;;;;;;5057825;28;19939;-62
2022/12/07 08:30:14;;;;;;;;;;;4.20;99.90;;;;;;5067762;28;19931;-62
2022/12/07 08:32:44;;;;;;;;;;;4.20;99.90;;;;;;5066711;28;19925;-62
2022/12/07 08:35:12;;;;;;;;;;;4.20;99.90;;;;;;5071530;28;19931;-62
2022/12/07 08:37:40;;;;;;;;;;;4.30;99.90;;;;;;5074087;28;20291;-62
2022/12/07 08:40:09;;;;;;;;;;;4.50;99.90;;;;;;5059821;28;19924;-64
2022/12/07 08:42:39;;;;;;;;;;;4.70;99.90;;;;;;5090391;28;20023;-62
2022/12/07 08:45:08;;;;;;;;;;;4.90;99.90;;;;;;5074070;28;19974;-62
2022/12/07 08:47:37;;;;;;;;;;;4.90;99.90;;;;;;5088863;28;19928;-62
2022/12/07 08:50:07;;;;;;;;;;;4.90;99.90;;;;;;5058233;28;19928;-62
2022/12/07 08:52:35;;;;;;;;;;;4.90;99.90;;;;;;5079979;28;19935;-61
2022/12/07 08:55:04;;;;;;;;;;;5.20;99.90;;;;;;5071024;28;19925;-62
2022/12/07 08:57:33;;;;;;;;;;;5.80;99.90;;;;;;5066423;28;20027;-62
2022/12/07 09:00:01;;;;;;;;;;;6.30;99.90;;;;;;5059707;28;19940;-62
2022/12/07 09:02:31;;;;;;;;;;;6.70;99.90;;;;;;5064233;28;20029;-62
2022/12/07 09:04:58;;;;;;;;;;;6.80;99.90;;;;;;5064514;28;20389;-61
2022/12/07 09:07:28;;;;;;;;;;;6.90;99.90;;;;;;5068361;28;19924;-62
2022/12/07 09:09:55;;;;;;;;;;;7.10;99.90;;;;;;5065366;28;19939;-62
2022/12/07 09:12:23;;;;;;;;;;;7.60;99.90;;;;;;5069380;28;19970;-62
2022/12/07 09:14:51;;;;;;;;;;;7.80;99.90;;;;;;5068720;28;19924;-62
2022/12/07 09:17:19;;;;;;;;;;;8.00;99.90;;;;;;5062249;28;19925;-62
2022/12/07 09:19:46;;;;;;;;;;;8.20;99.90;;;;;;5064869;28;20401;-62
2022/12/07 09:22:14;;;;;;;;;;;8.60;99.90;;;;;;5066967;28;20010;-62
2022/12/07 09:24:45;;;;;;;;;;;9.00;99.90;;;;;;5064239;28;19925;-62
2022/12/07 09:27:13;;;;;;;;;;;9.60;99.90;;;;;;5060113;28;19929;-62
2022/12/07 09:29:40;;;;;;;;;;;9.80;99.90;;;;;;5062198;28;20392;-62
2022/12/07 09:32:08;;;;;;;;;;;9.70;99.90;;;;;;5063009;28;19935;-62
2022/12/07 09:34:38;;;;;;;;;;;9.50;99.90;;;;;;5063559;28;19978;-61
2022/12/07 09:37:06;;;;;;;;;;;9.50;99.90;;;;;;5063771;28;19931;-62
2022/12/07 09:39:34;;;;;;;;;;;9.40;99.90;;;;;;5067282;28;19928;-60
2022/12/07 09:42:05;;;;;;;;;;;9.20;99.90;;;;;;5063330;28;19924;-61
2022/12/07 09:44:34;;;;;;;;;;;9.00;99.90;;;;;;5053849;28;19932;-61
2022/12/07 09:47:02;;;;;;;;;;;9.20;99.90;;;;;;5051258;28;19940;-61
2022/12/07 09:49:31;;;;;;;;;;;9.50;99.90;;;;;;5059999;28;19934;-61
2022/12/07 09:52:01;;;;;;;;;;;9.70;99.90;;;;;;5052762;28;19932;-62
2022/12/07 09:54:29;;;;;;;;;;;9.30;99.90;;;;;;5058034;28;19939;-61
2022/12/07 09:56:57;;;;;;;;;;;9.30;99.90;;;;;;5056013;28;19932;-61
2022/12/07 09:59:26;;;;;;;;;;;9.30;99.90;;;;;;5057561;28;19929;-62
2022/12/07 10:02:18;;;;;;;;;;;9.10;99.90;;;;;;5053865;28;19933;-62
2022/12/07 10:04:46;;;;;;;;;;;9.10;99.90;;;;;;5053675;28;19939;-61
2022/12/07 10:07:14;;;;;;;;;;;9.40;99.90;;;;;;5054501;28;19925;-61
2022/12/07 10:09:42;;;;;;;;;;;9.80;99.90;;;;;;5054234;28;20404;-62
2022/12/07 10:12:13;;;;;;;;;;;10.10;99.90;;;;;;5050121;28;20019;-61
2022/12/07 10:14:54;;;;;;;;;;;10.20;99.90;;;;;;5052043;28;19930;-63
2022/12/07 10:17:40;;;;;;;;;;;10.20;99.90;;;;;;5057203;28;19982;-61
2022/12/07 10:20:15;;;;;;;;;;;10.30;99.90;;;;;;5055574;28;19928;-60
2022/12/07 10:22:55;;;;;;;;;;;9.90;99.90;;;;;;5051874;28;19934;-60
2022/12/07 10:25:23;;;;;;;;;;;9.50;99.90;;;;;;5053507;28;19929;-61
2022/12/07 10:27:58;;;;;;;;;;;9.10;99.90;;;;;;5054746;28;19932;-60
2022/12/07 10:30:27;;;;;;;;;;;8.60;99.90;;;;;;5054122;28;19933;-61
2022/12/07 10:32:55;;;;;;;;;;;8.50;99.90;;;;;;5052872;28;19934;-61
2022/12/07 10:35:24;;;;;;;;;;;8.80;99.90;;;;;;5053660;28;19935;-61
2022/12/07 10:37:53;;;;;;;;;;;9.10;99.90;;;;;;5055124;28;20468;-62
2022/12/07 10:40:29;;;;;;;;;;;9.70;99.90;;;;;;5053155;28;19933;-62
2022/12/07 10:43:04;;;;;;;;;;;9.90;99.90;;;;;;5051081;28;19932;-61
2022/12/07 10:45:33;;;;;;;;;;;10.20;99.90;;;;;;5053091;28;20321;-60
2022/12/07 10:48:12;;;;;;;;;;;10.20;99.90;;;;;;5055628;28;19932;-61
2022/12/07 10:50:48;;;;;;;;;;;10.00;99.90;;;;;;5053235;28;19935;-60
2022/12/07 10:53:25;;;;;;;;;;;10.10;99.90;;;;;;5053246;28;19932;-60
2022/12/07 10:56:02;;;;;;;;;;;10.50;99.90;;;;;;5054045;28;20902;-61
2022/12/07 10:58:48;;;;;;;;;;;10.90;99.90;;;;;;5057250;28;19932;-60
2022/12/07 11:01:22;;;;;;;;;;;11.20;99.90;;;;;;5051977;28;19944;-61
2022/12/07 11:04:08;;;;;;;;;;;10.80;99.90;;;;;;5058473;28;19932;-61
2022/12/07 11:06:38;;;;;;;;;;;10.60;99.90;;;;;;5054991;28;20675;-61
2022/12/07 11:09:19;;;;;;;;;;;10.70;99.90;;;;;;5057223;28;19954;-61
2022/12/07 11:12:11;;;;;;;;;;;11.00;99.90;;;;;;5054095;28;19944;-62
2022/12/07 11:14:44;;;;;;;;;;;10.80;99.90;;;;;;5060504;28;20022;-60
2022/12/07 11:17:18;;;;;;;;;;;10.30;99.90;;;;;;5054517;28;19925;-61
2022/12/07 11:20:01;;;;;;;;;;;9.90;99.90;;;;;;5057117;28;19933;-61
2022/12/07 11:22:35;;;;;;;;;;;9.50;99.90;;;;;;5056857;28;19939;-61
2022/12/07 11:25:15;;;;;;;;;;;9.20;99.90;;;;;;5058223;28;19936;-60
2022/12/07 11:27:47;;;;;;;;;;;8.80;99.90;;;;;;5059778;28;20031;-61
2022/12/07 11:30:20;;;;;;;;;;;8.80;99.90;;;;;;5056774;28;19928;-61
2022/12/07 11:32:53;;;;;;;;;;;9.10;99.90;;;;;;5054726;28;19932;-61
2022/12/07 11:35:25;;;;;;;;;;;9.30;99.90;;;;;;5057067;28;20059;-61
2022/12/07 11:38:01;;;;;;;;;;;9.10;99.90;;;;;;5057608;28;19936;-62
2022/12/07 11:40:34;;;;;;;;;;;9.00;99.90;;;;;;5052947;28;19932;-61
2022/12/07 11:43:03;;;;;;;;;;;8.90;99.90;;;;;;5049277;28;20397;-61
2022/12/07 11:45:32;;;;;;;;;;;8.90;99.90;;;;;;5054553;28;19974;-62
2022/12/07 11:48:03;;;;;;;;;;;9.10;99.90;;;;;;5052262;28;19932;-61
2022/12/07 11:50:35;;;;;;;;;;;9.30;99.90;;;;;;5054739;28;19943;-61
2022/12/07 11:53:04;;;;;;;;;;;9.50;99.90;;;;;;5052033;28;19939;-61
2022/12/07 11:55:39;;;;;;;;;;;9.50;99.90;;;;;;5057911;28;19944;-62
2022/12/07 11:58:14;;;;;;;;;;;9.40;99.90;;;;;;5056245;28;19928;-62
2022/12/07 12:00:42;;;;;;;;;;;9.20;99.90;;;;;;5056424;28;19928;-61
2022/12/07 12:03:16;;;;;;;;;;;8.80;99.90;;;;;;5055290;28;19935;-61
2022/12/07 12:05:44;;;;;;;;;;;8.70;99.90;;;;;;5054311;28;20050;-62
2022/12/07 12:08:15;;;;;;;;;;;8.60;99.90;;;;;;5059123;28;19925;-61
2022/12/07 12:11:09;;;;;;;;;;;8.40;99.90;;;;;;5053207;28;20002;-62
2022/12/07 12:14:01;;;;;;;;;;;8.50;99.90;;;;;;5056594;28;19936;-62
2022/12/07 12:16:57;;;;;;;;;;;8.80;99.90;;;;;;5052601;28;19932;-62
2022/12/07 12:19:32;;;;;;;;;;;8.90;99.90;;;;;;5055731;28;19929;-62
2022/12/07 12:22:03;;;;;;;;;;;8.70;99.90;;;;;;5054610;28;19936;-62
2022/12/07 12:24:36;;;;;;;;;;;8.80;99.90;;;;;;5055889;28;19940;-61
2022/12/07 12:27:06;;;;;;;;;;;8.70;99.90;;;;;;5053548;28;19932;-62
2022/12/07 12:29:35;;;;;;;;;;;8.50;99.90;;;;;;5051463;28;19940;-61
2022/12/07 12:32:08;;;;;;;;;;;8.30;99.90;;;;;;5053755;28;19932;-62
2022/12/07 12:34:42;;;;;;;;;;;8.10;99.90;;;;;;5051121;28;20425;-61
2022/12/07 12:37:35;;;;;;;;;;;7.90;99.90;;;;;;5054363;28;20531;-61
2022/12/07 12:40:22;;;;;;;;;;;7.60;99.90;;;;;;5056793;28;19933;-61
2022/12/07 12:42:50;;;;;;;;;;;7.50;99.90;;;;;;5048965;28;19944;-62
2022/12/07 12:45:20;;;;;;;;;;;7.50;99.90;;;;;;5044479;28;19932;-61
2022/12/07 12:48:05;;;;;;;;;;;7.50;99.90;;;;;;5056060;28;19932;-61
2022/12/07 12:50:35;;;;;;;;;;;7.50;99.90;;;;;;5054549;28;19933;-62
2022/12/07 12:53:04;;;;;;;;;;;7.40;99.90;;;;;;5048383;28;19939;-61
2022/12/07 12:55:50;;;;;;;;;;;7.40;99.90;;;;;;5056625;28;19974;-60
2022/12/07 12:58:32;;;;;;;;;;;7.30;99.90;;;;;;5055707;28;19928;-62
2022/12/07 13:01:18;;;;;;;;;;;7.20;99.90;;;;;;5052334;28;20583;-61
2022/12/07 13:03:52;;;;;;;;;;;7.10;99.90;;;;;;5053827;28;20013;-61
2022/12/07 13:06:33;;;;;;;;;;;7.00;99.90;;;;;;5053898;28;20037;-62
2022/12/07 13:09:01;;;;;;;;;;;6.90;99.90;;;;;;5053477;28;19943;-61
2022/12/07 13:11:30;;;;;;;;;;;6.90;99.90;;;;;;5052904;28;19978;-61
2022/12/07 13:14:13;;;;;;;;;;;6.90;99.90;;;;;;5049540;28;20311;-61
2022/12/07 13:16:42;;;;;;;;;;;6.90;99.90;;;;;;5057169;28;19924;-61
2022/12/07 13:19:43;;;;;;;;;;;6.90;99.90;;;;;;5054013;28;19939;-61
2022/12/07 13:22:39;;;;;;;;;;;6.80;99.90;;;;;;5045624;28;20397;-61
2022/12/07 13:25:09;;;;;;;;;;;6.80;99.90;;;;;;5056314;28;19925;-62
2022/12/07 13:27:39;;;;;;;;;;;6.70;99.90;;;;;;5052319;28;19929;-61
2022/12/07 13:30:13;;;;;;;;;;;6.60;99.90;;;;;;5053357;28;19950;-61
2022/12/07 13:32:41;;;;;;;;;;;6.50;99.90;;;;;;5050848;28;19931;-60
2022/12/07 13:35:24;;;;;;;;;;;6.50;99.90;;;;;;5056171;28;19929;-62
2022/12/07 13:37:53;;;;;;;;;;;6.50;99.90;;;;;;5053158;28;20808;-62
2022/12/07 13:40:22;;;;;;;;;;;6.50;99.90;;;;;;5054172;28;19932;-62
2022/12/07 13:42:57;;;;;;;;;;;6.50;99.90;;;;;;5049685;28;19933;-62
2022/12/07 13:45:47;;;;;;;;;;;6.60;99.90;;;;;;5052014;28;20336;-62
2022/12/07 13:48:16;;;;;;;;;;;6.70;99.90;;;;;;5051510;28;19928;-62
2022/12/07 13:50:44;;;;;;;;;;;6.70;99.90;;;;;;5051117;28;19924;-61
2022/12/07 13:53:15;;;;;;;;;;;6.70;99.90;;;;;;5049410;28;20296;-61
2022/12/07 13:55:46;;;;;;;;;;;6.70;99.90;;;;;;5057439;28;20297;-62
2022/12/07 13:58:21;;;;;;;;;;;6.60;99.90;;;;;;5052082;28;19932;-62
2022/12/07 14:00:49;;;;;;;;;;;6.60;99.90;;;;;;5052849;28;19943;-62
2022/12/07 14:03:30;;;;;;;;;;;6.50;99.90;;;;;;5051500;28;19932;-61
2022/12/07 14:06:14;;;;;;;;;;;6.50;99.90;;;;;;5054952;28;19932;-61
2022/12/07 14:08:43;;;;;;;;;;;6.50;99.90;;;;;;5055752;28;19928;-61
2022/12/07 14:11:14;;;;;;;;;;;6.50;99.90;;;;;;5048819;28;19967;-61
2022/12/07 14:13:45;;;;;;;;;;;6.40;99.90;;;;;;5053746;28;19928;-62
2022/12/07 14:16:21;;;;;;;;;;;6.30;99.90;;;;;;5052309;28;19933;-62
2022/12/07 14:18:49;;;;;;;;;;;6.10;99.90;;;;;;5054492;28;20828;-61
2022/12/07 14:21:18;;;;;;;;;;;6.00;99.90;;;;;;5048720;28;19932;-61
2022/12/07 14:24:02;;;;;;;;;;;5.80;99.90;;;;;;5053915;28;19933;-61
2022/12/07 14:26:30;;;;;;;;;;;5.70;99.90;;;;;;5047135;28;20736;-61
2022/12/07 14:29:12;;;;;;;;;;;5.70;99.90;;;;;;5048069;28;19940;-61
2022/12/07 14:31:40;;;;;;;;;;;5.70;99.90;;;;;;5045971;28;20507;-61
2022/12/07 14:34:12;;;;;;;;;;;5.70;99.90;;;;;;5055768;28;19924;-61
2022/12/07 14:36:39;;;;;;;;;;;5.70;99.90;;;;;;5059054;28;20401;-61
2022/12/07 14:39:09;;;;;;;;;;;5.60;99.90;;;;;;5058401;28;19925;-62
2022/12/07 14:41:52;;;;;;;;;;;5.70;99.90;;;;;;5054915;28;19978;-61
2022/12/07 14:44:20;;;;;;;;;;;5.70;99.90;;;;;;5057804;28;20386;-62
2022/12/07 14:46:53;;;;;;;;;;;5.70;99.90;;;;;;5057467;28;19933;-61
2022/12/07 14:49:41;;;;;;;;;;;5.60;99.90;;;;;;5056902;28;19948;-61
2022/12/07 14:52:14;;;;;;;;;;;5.60;99.90;;;;;;5052595;28;20393;-61
2022/12/07 14:55:03;;;;;;;;;;;5.60;99.90;;;;;;5058854;28;20325;-62
2022/12/07 14:57:31;;;;;;;;;;;5.60;99.90;;;;;;5059643;28;19940;-61
2022/12/07 14:59:59;;;;;;;;;;;5.60;99.90;;;;;;5055121;28;19939;-61
2022/12/07 15:02:27;;;;;;;;;;;5.60;99.90;;;;;;5046074;28;19940;-61